createdAt,value
2019-02-28T00:01:24.257Z,925.16
2019-02-28T00:02:56.067Z,925.22
2019-02-28T00:04:32.002Z,925.22
2019-02-28T00:05:59.695Z,925.25
2019-02-28T00:07:31.510Z,925.27
2019-02-28T00:09:03.325Z,925.26
2019-02-28T00:10:35.239Z,925.30
2019-02-28T00:12:06.954Z,925.32
2019-02-28T00:13:38.772Z,925.35
2019-02-28T00:15:10.583Z,925.32
2019-02-28T00:16:42.498Z,925.35
2019-02-28T00:18:15.212Z,925.34
2019-02-28T00:19:46.029Z,925.36
2019-02-28T00:21:17.841Z,925.38
2019-02-28T00:22:49.656Z,925.44
2019-02-28T00:24:21.470Z,925.49
2019-02-28T00:25:53.285Z,925.42
2019-02-28T00:27:25.099Z,925.46
2019-02-28T00:29:00.513Z,925.44
2019-02-28T00:30:28.730Z,925.42
2019-02-28T00:32:00.543Z,925.38
2019-02-28T00:33:32.358Z,925.32
2019-02-28T00:35:04.173Z,925.30
2019-02-28T00:36:35.987Z,925.33
2019-02-28T00:38:07.800Z,925.34
2019-02-28T00:39:39.616Z,925.39
2019-02-28T00:41:11.430Z,925.39
2019-02-28T00:42:43.244Z,925.39
2019-02-28T00:44:15.059Z,925.39
2019-02-28T00:45:46.877Z,925.37
2019-02-28T00:47:18.894Z,925.39
2019-02-28T00:48:53.041Z,925.34
2019-02-28T00:50:22.318Z,925.31
2019-02-28T00:51:54.132Z,925.31
2019-02-28T00:53:25.945Z,925.28
2019-02-28T00:54:57.765Z,925.23
2019-02-28T00:56:29.575Z,925.23
2019-02-28T00:58:01.390Z,925.24
2019-02-28T00:59:33.306Z,925.25
2019-02-28T01:01:05.017Z,925.22
2019-02-28T01:02:36.832Z,925.24
2019-02-28T01:04:08.647Z,925.21
2019-02-28T01:05:40.560Z,925.19
2019-02-28T01:07:13.253Z,925.24
2019-02-28T01:08:44.090Z,925.23
2019-02-28T01:10:15.906Z,925.28
2019-02-28T01:11:47.719Z,925.25
2019-02-28T01:13:19.533Z,925.24
2019-02-28T01:14:51.347Z,925.26
2019-02-28T01:16:23.166Z,925.26
2019-02-28T01:17:57.107Z,925.30
2019-02-28T01:19:26.790Z,925.27
2019-02-28T01:20:58.613Z,925.24
2019-02-28T01:22:30.422Z,925.21
2019-02-28T01:24:02.333Z,925.17
2019-02-28T01:25:34.048Z,925.16
2019-02-28T01:27:05.865Z,925.13
2019-02-28T01:28:37.677Z,925.12
2019-02-28T01:30:09.591Z,925.09
2019-02-28T01:31:42.559Z,925.11
2019-02-28T01:33:13.119Z,925.09
2019-02-28T01:34:44.947Z,925.08
2019-02-28T01:36:16.748Z,925.11
2019-02-28T01:37:48.564Z,925.07
2019-02-28T01:39:20.381Z,925.03
2019-02-28T01:40:52.203Z,924.99
2019-02-28T01:42:24.107Z,924.98
2019-02-28T01:43:55.820Z,924.98
2019-02-28T01:45:27.635Z,924.98
2019-02-28T01:46:59.450Z,924.98
2019-02-28T01:48:31.263Z,925.07
2019-02-28T01:50:03.078Z,925.09
2019-02-28T01:51:36.625Z,925.02
2019-02-28T01:53:06.711Z,925.01
2019-02-28T01:54:38.525Z,925.05
2019-02-28T01:56:10.336Z,925.00
2019-02-28T01:57:43.803Z,924.97
2019-02-28T01:59:13.965Z,925.02
2019-02-28T02:00:45.883Z,925.02
2019-02-28T02:02:17.595Z,925.07
2019-02-28T02:03:49.410Z,925.09
2019-02-28T02:05:21.224Z,925.14
2019-02-28T02:06:53.051Z,925.13
2019-02-28T02:08:24.866Z,925.16
2019-02-28T02:09:56.669Z,925.16
2019-02-28T02:11:28.483Z,925.13
2019-02-28T02:13:03.262Z,925.14
2019-02-28T02:14:32.112Z,925.14
2019-02-28T02:16:03.927Z,925.16
2019-02-28T02:17:36.237Z,925.15
2019-02-28T02:19:08.307Z,925.15
2019-02-28T02:20:39.371Z,925.11
2019-02-28T02:22:11.186Z,925.09
2019-02-28T02:23:43.008Z,925.11
2019-02-28T02:25:14.815Z,925.11
2019-02-28T02:26:46.630Z,925.05
2019-02-28T02:28:18.444Z,925.03
2019-02-28T02:29:50.262Z,925.03
2019-02-28T02:31:27.224Z,924.99
2019-02-28T02:32:53.900Z,924.97
2019-02-28T02:34:28.262Z,924.94
2019-02-28T02:35:57.523Z,924.90
2019-02-28T02:37:30.442Z,924.91
2019-02-28T02:39:01.147Z,924.89
2019-02-28T02:40:32.969Z,924.90
2019-02-28T02:42:10.044Z,924.84
2019-02-28T02:43:36.591Z,924.82
2019-02-28T02:45:08.408Z,924.79
2019-02-28T02:46:40.225Z,924.72
2019-02-28T02:48:12.048Z,924.70
2019-02-28T02:49:43.852Z,924.71
2019-02-28T02:51:15.668Z,924.67
2019-02-28T02:52:47.499Z,924.67
2019-02-28T02:54:20.230Z,924.67
2019-02-28T02:55:51.208Z,924.68
2019-02-28T02:57:22.923Z,924.67
2019-02-28T02:58:54.776Z,924.66
2019-02-28T03:00:26.593Z,924.68
2019-02-28T03:01:58.426Z,924.69
2019-02-28T03:03:30.202Z,924.67
2019-02-28T03:05:02.086Z,924.68
2019-02-28T03:06:33.845Z,924.67
2019-02-28T03:08:05.626Z,924.69
2019-02-28T03:09:37.443Z,924.68
2019-02-28T03:11:09.271Z,924.69
2019-02-28T03:12:41.070Z,924.71
2019-02-28T03:14:16.344Z,924.68
2019-02-28T03:15:44.701Z,924.70
2019-02-28T03:17:16.536Z,924.70
2019-02-28T03:18:48.342Z,924.69
2019-02-28T03:20:20.296Z,924.69
2019-02-28T03:21:52.996Z,924.67
2019-02-28T03:23:23.791Z,924.61
2019-02-28T03:24:55.587Z,924.59
2019-02-28T03:26:27.402Z,924.61
2019-02-28T03:27:59.231Z,924.56
2019-02-28T03:29:31.032Z,924.56
2019-02-28T03:31:11.675Z,924.56
2019-02-28T03:32:42.031Z,924.52
2019-02-28T03:34:12.867Z,924.49
2019-02-28T03:35:43.087Z,924.47
2019-02-28T03:37:10.107Z,924.44
2019-02-28T03:38:48.555Z,924.43
2019-02-28T03:40:13.735Z,924.41
2019-02-28T03:41:49.013Z,924.36
2019-02-28T03:43:17.365Z,924.36
2019-02-28T03:44:49.178Z,924.36
2019-02-28T03:46:20.996Z,924.31
2019-02-28T03:47:58.391Z,924.36
2019-02-28T03:49:24.622Z,924.33
2019-02-28T03:50:56.750Z,924.39
2019-02-28T03:52:28.262Z,924.36
2019-02-28T03:54:00.067Z,924.32
2019-02-28T03:55:31.882Z,924.28
2019-02-28T03:57:03.732Z,924.28
2019-02-28T03:58:41.687Z,924.24
2019-02-28T04:00:07.324Z,924.22
2019-02-28T04:01:44.629Z,924.27
2019-02-28T04:03:11.106Z,924.27
2019-02-28T04:04:48.803Z,924.22
2019-02-28T04:06:14.587Z,924.20
2019-02-28T04:07:52.907Z,924.20
2019-02-28T04:09:18.333Z,924.24
2019-02-28T04:10:50.031Z,924.20
2019-02-28T04:12:21.844Z,924.24
2019-02-28T04:13:56.011Z,924.24
2019-02-28T04:15:25.468Z,924.28
2019-02-28T04:16:57.284Z,924.27
2019-02-28T04:18:29.097Z,924.32
2019-02-28T04:20:00.989Z,924.32
2019-02-28T04:21:32.764Z,924.28
2019-02-28T04:23:04.541Z,924.25
2019-02-28T04:24:36.364Z,924.24
2019-02-28T04:26:08.170Z,924.26
2019-02-28T04:27:41.855Z,924.20
2019-02-28T04:29:11.796Z,924.23
2019-02-28T04:30:44.088Z,924.18
2019-02-28T04:32:15.437Z,924.16
2019-02-28T04:33:47.396Z,924.16
2019-02-28T04:35:24.368Z,924.13
2019-02-28T04:36:50.867Z,924.10
2019-02-28T04:38:22.706Z,924.08
2019-02-28T04:39:54.594Z,924.08
2019-02-28T04:41:26.325Z,924.07
2019-02-28T04:42:58.123Z,924.05
2019-02-28T04:44:29.936Z,924.09
2019-02-28T04:46:01.883Z,924.08
2019-02-28T04:47:33.564Z,924.10
2019-02-28T04:49:05.397Z,924.08
2019-02-28T04:50:37.195Z,924.04
2019-02-28T04:52:11.823Z,924.03
2019-02-28T04:53:40.820Z,923.99
2019-02-28T04:55:12.653Z,924.05
2019-02-28T04:56:45.621Z,924.05
2019-02-28T04:58:16.262Z,923.99
2019-02-28T04:59:48.079Z,924.00
2019-02-28T05:01:19.889Z,923.96
2019-02-28T05:02:54.873Z,923.98
2019-02-28T05:04:23.616Z,923.98
2019-02-28T05:05:55.345Z,923.94
2019-02-28T05:07:29.653Z,923.92
2019-02-28T05:08:58.958Z,923.89
2019-02-28T05:10:30.831Z,923.88
2019-02-28T05:12:05.359Z,923.86
2019-02-28T05:13:34.400Z,923.86
2019-02-28T05:15:06.215Z,923.82
2019-02-28T05:16:38.046Z,923.87
2019-02-28T05:18:09.845Z,923.85
2019-02-28T05:19:41.691Z,923.79
2019-02-28T05:21:16.602Z,923.76
2019-02-28T05:22:45.484Z,923.72
2019-02-28T05:24:17.098Z,923.71
2019-02-28T05:25:49.064Z,923.65
2019-02-28T05:27:20.740Z,923.69
2019-02-28T05:28:52.540Z,923.68
2019-02-28T05:30:24.365Z,923.65
2019-02-28T05:31:58.127Z,923.67
2019-02-28T05:33:27.983Z,923.63
2019-02-28T05:34:59.957Z,923.63
2019-02-28T05:36:34.608Z,923.59
2019-02-28T05:38:03.422Z,923.58
2019-02-28T05:39:35.236Z,923.57
2019-02-28T05:41:07.302Z,923.52
2019-02-28T05:42:38.863Z,923.50
2019-02-28T05:44:10.676Z,923.46
2019-02-28T05:45:42.519Z,923.47
2019-02-28T05:47:14.306Z,923.42
2019-02-28T05:48:46.169Z,923.43
2019-02-28T05:50:17.935Z,923.44
2019-02-28T05:51:49.770Z,923.37
2019-02-28T05:53:21.596Z,923.36
2019-02-28T05:54:53.378Z,923.38
2019-02-28T05:56:25.188Z,923.34
2019-02-28T05:57:57.000Z,923.34
2019-02-28T05:59:28.920Z,923.37
2019-02-28T06:01:00.628Z,923.39
2019-02-28T06:02:32.442Z,923.38
2019-02-28T06:04:04.277Z,923.34
2019-02-28T06:05:36.070Z,923.36
2019-02-28T06:07:09.394Z,923.33
2019-02-28T06:08:40.039Z,923.32
2019-02-28T06:10:11.521Z,923.28
2019-02-28T06:11:43.967Z,923.32
2019-02-28T06:13:15.314Z,923.30
2019-02-28T06:14:46.952Z,923.37
2019-02-28T06:16:18.766Z,923.35
2019-02-28T06:17:54.623Z,923.35
2019-02-28T06:19:22.396Z,923.37
2019-02-28T06:20:54.209Z,923.34
2019-02-28T06:22:26.020Z,923.37
2019-02-28T06:23:57.835Z,923.39
2019-02-28T06:25:29.648Z,923.34
2019-02-28T06:27:03.651Z,923.32
2019-02-28T06:28:33.275Z,923.37
2019-02-28T06:30:05.091Z,923.31
2019-02-28T06:31:36.927Z,923.28
2019-02-28T06:33:08.716Z,923.29
2019-02-28T06:34:42.221Z,923.26
2019-02-28T06:36:12.443Z,923.25
2019-02-28T06:37:44.182Z,923.29
2019-02-28T06:39:17.514Z,923.24
2019-02-28T06:40:47.784Z,923.25
2019-02-28T06:42:19.600Z,923.24
2019-02-28T06:43:53.038Z,923.20
2019-02-28T06:45:23.225Z,923.21
2019-02-28T06:46:55.039Z,923.20
2019-02-28T06:48:26.853Z,923.22
2019-02-28T06:49:58.667Z,923.25
2019-02-28T06:51:30.480Z,923.24
2019-02-28T06:53:02.303Z,923.23
2019-02-28T06:54:34.361Z,923.24
2019-02-28T06:56:05.925Z,923.27
2019-02-28T06:57:37.735Z,923.31
2019-02-28T06:59:09.550Z,923.32
2019-02-28T07:00:44.163Z,923.29
2019-02-28T07:02:13.181Z,923.32
2019-02-28T07:03:53.317Z,923.37
2019-02-28T07:05:16.810Z,923.35
2019-02-28T07:06:48.739Z,923.33
2019-02-28T07:08:20.650Z,923.33
2019-02-28T07:09:52.249Z,923.32
2019-02-28T07:11:24.064Z,923.33
2019-02-28T07:12:56.123Z,923.35
2019-02-28T07:14:27.688Z,923.38
2019-02-28T07:15:59.910Z,923.36
2019-02-28T07:17:31.314Z,923.39
2019-02-28T07:19:03.127Z,923.42
2019-02-28T07:20:35.248Z,923.44
2019-02-28T07:22:06.783Z,923.44
2019-02-28T07:23:38.571Z,923.46
2019-02-28T07:25:12.592Z,923.45
2019-02-28T07:26:42.194Z,923.45
2019-02-28T07:28:14.008Z,923.47
2019-02-28T07:29:45.824Z,923.49
2019-02-28T07:31:17.735Z,923.51
2019-02-28T07:32:49.472Z,923.46
2019-02-28T07:34:23.802Z,923.51
2019-02-28T07:35:53.075Z,923.48
2019-02-28T07:37:24.989Z,923.49
2019-02-28T07:38:57.826Z,923.51
2019-02-28T07:40:28.519Z,923.52
2019-02-28T07:42:02.193Z,923.59
2019-02-28T07:43:32.141Z,923.53
2019-02-28T07:45:03.969Z,923.53
2019-02-28T07:46:38.770Z,923.56
2019-02-28T07:48:07.582Z,923.61
2019-02-28T07:49:39.496Z,923.60
2019-02-28T07:51:11.208Z,923.68
2019-02-28T07:52:43.021Z,923.64
2019-02-28T07:54:15.873Z,923.63
2019-02-28T07:55:46.755Z,923.63
2019-02-28T07:57:18.460Z,923.61
2019-02-28T07:58:50.278Z,923.61
2019-02-28T08:00:22.090Z,923.63
2019-02-28T08:01:53.902Z,923.65
2019-02-28T08:03:25.718Z,923.67
2019-02-28T08:04:57.526Z,923.76
2019-02-28T08:06:29.341Z,923.73
2019-02-28T08:08:01.353Z,923.73
2019-02-28T08:09:32.966Z,923.73
2019-02-28T08:11:04.781Z,923.78
2019-02-28T08:12:36.595Z,923.78
2019-02-28T08:14:09.213Z,923.80
2019-02-28T08:15:40.223Z,923.79
2019-02-28T08:17:12.032Z,923.80
2019-02-28T08:18:43.846Z,923.85
2019-02-28T08:20:15.659Z,923.82
2019-02-28T08:21:50.187Z,923.89
2019-02-28T08:23:19.294Z,923.88
2019-02-28T08:24:52.080Z,923.87
2019-02-28T08:26:23.013Z,923.92
2019-02-28T08:27:59.101Z,923.85
2019-02-28T08:29:26.539Z,923.90
2019-02-28T08:30:58.363Z,923.87
2019-02-28T08:32:30.165Z,923.89
2019-02-28T08:34:01.979Z,923.87
2019-02-28T08:35:34.937Z,923.84
2019-02-28T08:37:05.617Z,923.84
2019-02-28T08:38:37.420Z,923.84
2019-02-28T08:40:09.251Z,923.87
2019-02-28T08:41:41.049Z,923.89
2019-02-28T08:43:13.586Z,923.91
2019-02-28T08:44:44.772Z,923.93
2019-02-28T08:46:16.485Z,923.97
2019-02-28T08:47:48.300Z,924.01
2019-02-28T08:49:20.113Z,924.06
2019-02-28T08:50:52.713Z,924.09
2019-02-28T08:52:23.739Z,924.06
2019-02-28T08:53:55.588Z,924.07
2019-02-28T08:55:29.037Z,924.08
2019-02-28T08:56:59.183Z,924.08
2019-02-28T08:58:30.997Z,924.04
2019-02-28T09:00:02.807Z,924.12
2019-02-28T09:01:40.112Z,924.13
2019-02-28T09:03:06.535Z,924.15
2019-02-28T09:04:41.154Z,924.12
2019-02-28T09:06:10.094Z,924.15
2019-02-28T09:07:41.887Z,924.18
2019-02-28T09:09:14.687Z,924.19
2019-02-28T09:10:46.916Z,924.17
2019-02-28T09:13:49.144Z,924.17
2019-02-28T09:15:21.053Z,924.25
2019-02-28T09:18:24.606Z,924.30
2019-02-28T09:19:56.429Z,924.35
2019-02-28T09:21:28.299Z,924.35
2019-02-28T09:23:02.149Z,924.36
2019-02-28T09:27:38.788Z,924.37
2019-02-28T09:29:07.290Z,924.44
2019-02-28T09:30:39.076Z,924.41
2019-02-28T09:32:13.537Z,924.39
2019-02-28T09:33:42.727Z,924.40
2019-02-28T09:35:14.741Z,924.42
2019-02-28T09:36:46.401Z,924.46
2019-02-28T09:38:18.186Z,924.49
2019-02-28T09:39:51.260Z,924.48
2019-02-28T09:42:54.031Z,924.51
2019-02-28T09:44:25.418Z,924.50
2019-02-28T09:45:57.226Z,924.51
2019-02-28T09:47:29.041Z,924.53
2019-02-28T09:49:00.880Z,924.54
2019-02-28T09:50:33.330Z,924.54
2019-02-28T09:52:06.325Z,924.56
2019-02-28T09:55:08.404Z,924.62
2019-02-28T09:56:41.141Z,924.63
2019-02-28T09:58:12.103Z,924.65
2019-02-28T09:59:43.589Z,924.70
2019-02-28T10:01:15.420Z,924.75
2019-02-28T10:02:47.474Z,924.78
2019-02-28T10:04:19.110Z,924.78
2019-02-28T10:05:50.847Z,924.78
2019-02-28T10:07:23.429Z,924.82
2019-02-28T10:08:54.472Z,924.86
2019-02-28T10:10:26.307Z,924.86
2019-02-28T10:11:58.088Z,924.86
2019-02-28T10:13:31.050Z,924.89
2019-02-28T10:15:07.203Z,924.89
2019-02-28T10:16:33.645Z,924.93
2019-02-28T10:18:05.849Z,924.88
2019-02-28T10:19:45.602Z,924.96
2019-02-28T10:21:08.984Z,924.95
2019-02-28T10:22:40.996Z,924.98
2019-02-28T10:24:12.795Z,925.03
2019-02-28T10:28:48.490Z,925.03
2019-02-28T10:30:30.777Z,925.09
2019-02-28T10:31:51.658Z,925.08
2019-02-28T10:33:24.189Z,925.10
2019-02-28T10:34:58.368Z,925.12
2019-02-28T10:36:27.625Z,925.13
2019-02-28T10:37:59.053Z,925.14
2019-02-28T10:39:30.753Z,925.15
2019-02-28T10:41:02.549Z,925.22
2019-02-28T10:42:37.026Z,925.24
2019-02-28T10:44:06.266Z,925.24
2019-02-28T10:45:41.276Z,925.29
2019-02-28T10:47:09.795Z,925.31
2019-02-28T10:48:50.427Z,925.32
2019-02-28T10:50:13.444Z,925.34
2019-02-28T10:51:49.624Z,925.31
2019-02-28T10:53:17.159Z,925.31
2019-02-28T10:54:49.394Z,925.25
2019-02-28T10:56:20.693Z,925.25
2019-02-28T10:57:52.748Z,925.25
2019-02-28T10:59:25.088Z,925.29
2019-02-28T11:00:56.294Z,925.33
2019-02-28T11:02:28.741Z,925.33
2019-02-28T11:04:00.383Z,925.39
2019-02-28T11:05:32.333Z,925.43
2019-02-28T11:07:03.618Z,925.35
2019-02-28T11:08:35.402Z,925.40
2019-02-28T11:10:07.102Z,925.37
2019-02-28T11:13:10.908Z,925.45
2019-02-28T11:14:42.571Z,925.46
2019-02-28T11:16:14.608Z,925.43
2019-02-28T11:17:46.473Z,925.47
2019-02-28T11:19:19.489Z,925.56
2019-02-28T11:20:49.973Z,925.66
2019-02-28T11:22:21.969Z,925.70
2019-02-28T11:23:53.449Z,925.76
2019-02-28T11:25:25.400Z,925.77
2019-02-28T11:26:57.251Z,925.76
2019-02-28T11:28:29.285Z,925.80
2019-02-28T11:30:00.721Z,925.78
2019-02-28T11:31:32.691Z,925.82
2019-02-28T11:33:04.742Z,925.82
2019-02-28T11:34:36.230Z,925.77
2019-02-28T11:37:42.359Z,925.79
2019-02-28T11:39:11.627Z,925.77
2019-02-28T11:40:44.438Z,925.86
2019-02-28T11:46:51.218Z,925.80
2019-02-28T11:48:22.497Z,925.83
2019-02-28T11:49:54.379Z,925.75
2019-02-28T11:51:26.480Z,925.73
2019-02-28T11:53:03.226Z,925.71
2019-02-28T11:54:29.894Z,925.72
2019-02-28T11:56:01.602Z,925.69
2019-02-28T11:57:33.729Z,925.71
2019-02-28T11:59:05.500Z,925.71
2019-02-28T12:00:37.551Z,925.74
2019-02-28T12:02:09.152Z,925.79
2019-02-28T12:05:15.654Z,925.81
2019-02-28T12:08:16.112Z,925.85
2019-02-28T12:09:48.173Z,925.81
2019-02-28T12:11:21.070Z,925.84
2019-02-28T12:12:51.660Z,925.84
2019-02-28T12:14:26.421Z,925.82
2019-02-28T12:15:55.446Z,925.86
2019-02-28T12:17:28.588Z,925.85
2019-02-28T12:18:59.026Z,925.84
2019-02-28T12:20:30.921Z,925.90
2019-02-28T12:22:02.620Z,925.86
2019-02-28T12:23:34.379Z,925.85
2019-02-28T12:25:07.562Z,925.86
2019-02-28T12:26:38.238Z,925.86
2019-02-28T12:28:10.015Z,925.85
2019-02-28T12:29:41.672Z,925.88
2019-02-28T12:31:13.480Z,925.88
2019-02-28T12:32:45.404Z,925.86
2019-02-28T12:34:17.415Z,925.84
2019-02-28T12:35:48.951Z,925.88
2019-02-28T12:37:22.028Z,925.91
2019-02-28T12:38:52.540Z,925.88
2019-02-28T12:40:24.439Z,925.87
2019-02-28T12:43:28.185Z,925.92
2019-02-28T12:45:00.248Z,925.92
2019-02-28T12:46:32.688Z,925.94
2019-02-28T12:49:35.368Z,926.04
2019-02-28T12:51:06.928Z,926.09
2019-02-28T12:52:38.999Z,926.09
2019-02-28T12:54:10.967Z,926.10
2019-02-28T12:55:42.575Z,926.13
2019-02-28T12:57:14.232Z,926.13
2019-02-28T12:58:46.228Z,926.08
2019-02-28T13:00:19.821Z,926.10
2019-02-28T13:01:50.000Z,926.07
2019-02-28T13:03:21.789Z,926.06
2019-02-28T13:04:53.946Z,926.06
2019-02-28T13:06:26.349Z,926.02
2019-02-28T13:07:57.445Z,926.07
2019-02-28T13:09:30.282Z,926.03
2019-02-28T13:11:04.301Z,926.08
2019-02-28T13:12:32.396Z,926.13
2019-02-28T13:15:36.806Z,926.16
2019-02-28T13:17:08.372Z,926.17
2019-02-28T13:20:11.734Z,926.11
2019-02-28T13:21:46.676Z,926.16
2019-02-28T13:23:17.132Z,926.20
2019-02-28T13:24:47.653Z,926.14
2019-02-28T13:26:18.716Z,926.09
2019-02-28T13:27:51.612Z,926.08
2019-02-28T13:29:22.594Z,926.08
2019-02-28T13:30:54.694Z,926.14
2019-02-28T13:32:26.476Z,926.16
2019-02-28T13:35:30.747Z,926.11
2019-02-28T13:37:04.167Z,926.13
2019-02-28T13:38:34.791Z,926.22
2019-02-28T13:40:08.495Z,926.20
2019-02-28T13:41:37.327Z,926.26
2019-02-28T13:43:09.071Z,926.28
2019-02-28T13:44:40.435Z,926.35
2019-02-28T13:46:13.072Z,926.30
2019-02-28T13:47:46.419Z,926.25
2019-02-28T13:49:16.179Z,926.24
2019-02-28T13:50:47.785Z,926.18
2019-02-28T13:52:20.962Z,926.16
2019-02-28T13:53:51.469Z,926.11
2019-02-28T13:55:23.215Z,926.13
2019-02-28T13:56:55.419Z,926.12
2019-02-28T13:58:27.689Z,926.16
2019-02-28T14:00:00.463Z,926.21
2019-02-28T14:01:31.523Z,926.16
2019-02-28T14:03:08.798Z,926.03
2019-02-28T14:04:36.992Z,926.05
2019-02-28T14:06:05.844Z,926.11
2019-02-28T14:07:38.229Z,926.19
2019-02-28T14:09:10.225Z,926.22
2019-02-28T14:12:16.996Z,926.24
2019-02-28T14:13:44.971Z,926.15
2019-02-28T14:15:17.754Z,926.13
2019-02-28T14:16:49.333Z,925.91
2019-02-28T14:18:20.612Z,925.83
2019-02-28T14:19:53.517Z,925.77
2019-02-28T14:21:24.208Z,925.68
2019-02-28T14:22:56.186Z,925.66
2019-02-28T14:24:30.917Z,925.55
2019-02-28T14:25:59.978Z,925.56
2019-02-28T14:29:03.201Z,925.83
2019-02-28T14:30:35.245Z,925.92
2019-02-28T14:32:08.244Z,925.84
2019-02-28T14:33:39.361Z,925.84
2019-02-28T14:35:10.497Z,925.59
2019-02-28T14:36:45.162Z,925.55
2019-02-28T14:38:14.432Z,925.58
2019-02-28T14:39:46.106Z,925.61
2019-02-28T14:41:18.745Z,925.59
2019-02-28T14:42:49.931Z,925.70
2019-02-28T14:44:22.873Z,925.69
2019-02-28T14:45:53.415Z,925.69
2019-02-28T14:47:28.493Z,925.69
2019-02-28T14:48:56.921Z,925.77
2019-02-28T14:50:28.931Z,925.84
2019-02-28T14:52:03.517Z,925.88
2019-02-28T14:53:33.041Z,925.73
2019-02-28T14:55:04.616Z,925.69
2019-02-28T14:56:36.312Z,925.74
2019-02-28T14:58:08.273Z,925.74
2019-02-28T14:59:39.855Z,925.58
2019-02-28T15:01:16.653Z,925.62
2019-02-28T15:02:43.331Z,925.63
2019-02-28T15:04:15.291Z,925.63
2019-02-28T15:05:46.828Z,925.68
2019-02-28T15:07:18.778Z,925.67
2019-02-28T15:08:51.866Z,925.74
2019-02-28T15:10:22.375Z,925.73
2019-02-28T15:11:54.031Z,925.79
2019-02-28T15:13:25.927Z,925.91
2019-02-28T15:14:57.940Z,925.88
2019-02-28T15:16:30.361Z,925.67
2019-02-28T15:18:01.253Z,925.65
2019-02-28T15:19:33.143Z,925.50
2019-02-28T15:21:07.520Z,925.55
2019-02-28T15:22:36.634Z,925.49
2019-02-28T15:24:09.607Z,925.55
2019-02-28T15:25:43.134Z,925.59
2019-02-28T15:27:12.443Z,925.53
2019-02-28T15:30:15.797Z,925.65
2019-02-28T15:31:47.749Z,925.59
2019-02-28T15:33:19.706Z,925.58
2019-02-28T15:34:51.334Z,925.57
2019-02-28T15:36:24.143Z,925.60
2019-02-28T15:37:54.860Z,925.60
2019-02-28T15:39:26.691Z,925.80
2019-02-28T15:40:59.454Z,925.83
2019-02-28T15:42:30.463Z,925.79
2019-02-28T15:44:02.248Z,925.75
2019-02-28T15:45:36.255Z,925.71
2019-02-28T15:47:05.864Z,925.75
2019-02-28T15:48:37.744Z,925.68
2019-02-28T15:50:09.548Z,925.75
2019-02-28T15:51:41.389Z,925.56
2019-02-28T15:53:15.071Z,925.55
2019-02-28T15:54:44.762Z,925.66
2019-02-28T15:56:19.824Z,925.75
2019-02-28T15:57:48.395Z,925.62
2019-02-28T15:59:20.335Z,925.11
2019-02-28T16:00:53.726Z,925.03
2019-02-28T16:02:24.634Z,925.79
2019-02-28T16:03:55.838Z,925.67
2019-02-28T16:05:27.531Z,925.72
2019-02-28T16:06:59.553Z,925.67
2019-02-28T16:08:31.426Z,925.51
2019-02-28T16:10:03.159Z,925.19
2019-02-28T16:11:37.421Z,925.04
2019-02-28T16:13:06.810Z,925.11
2019-02-28T16:14:38.768Z,924.97
2019-02-28T16:16:10.209Z,924.81
2019-02-28T16:17:42.087Z,925.03
2019-02-28T16:19:14.016Z,924.93
2019-02-28T16:20:45.697Z,924.79
2019-02-28T16:23:49.512Z,924.94
2019-02-28T16:25:21.503Z,924.94
2019-02-28T16:26:56.691Z,924.94
2019-02-28T16:28:25.056Z,925.16
2019-02-28T16:29:57.265Z,925.20
2019-02-28T16:31:28.587Z,925.28
2019-02-28T16:33:00.309Z,925.19
2019-02-28T16:34:32.726Z,924.97
2019-02-28T16:36:04.162Z,925.06
2019-02-28T16:37:35.865Z,925.09
2019-02-28T16:39:07.738Z,925.09
2019-02-28T16:40:39.922Z,925.16
2019-02-28T16:42:12.444Z,924.95
2019-02-28T16:43:42.990Z,924.96
2019-02-28T16:45:15.271Z,924.71
2019-02-28T16:46:49.958Z,924.71
2019-02-28T16:48:18.881Z,924.85
2019-02-28T16:49:50.508Z,924.52
2019-02-28T16:51:22.369Z,924.72
2019-02-28T16:52:54.983Z,924.68
2019-02-28T16:54:27.770Z,924.80
2019-02-28T16:55:57.679Z,924.87
2019-02-28T16:57:29.417Z,924.74
2019-02-28T16:59:01.325Z,924.75
2019-02-28T17:00:34.229Z,924.64
2019-02-28T17:03:38.392Z,924.88
2019-02-28T17:05:08.626Z,924.78
2019-02-28T17:06:40.221Z,924.72
2019-02-28T17:08:12.028Z,924.78
2019-02-28T17:09:43.873Z,924.85
2019-02-28T17:11:18.265Z,924.81
2019-02-28T17:12:47.730Z,924.69
2019-02-28T17:14:19.433Z,924.77
2019-02-28T17:15:51.597Z,924.78
2019-02-28T17:17:22.887Z,924.56
2019-02-28T17:18:56.871Z,924.71
2019-02-28T17:20:26.852Z,924.58
2019-02-28T17:21:58.869Z,924.69
2019-02-28T17:23:30.374Z,924.79
2019-02-28T17:25:02.174Z,924.95
2019-02-28T17:26:34.011Z,924.87
2019-02-28T17:29:37.394Z,924.76
2019-02-28T17:31:11.587Z,924.63
2019-02-28T17:32:41.402Z,924.68
2019-02-28T17:34:14.257Z,924.56
2019-02-28T17:35:44.707Z,924.63
2019-02-28T17:37:20.025Z,924.52
2019-02-28T17:40:20.113Z,924.61
2019-02-28T17:41:52.353Z,924.51
2019-02-28T17:43:24.548Z,924.60
2019-02-28T17:44:55.556Z,924.53
2019-02-28T17:46:27.761Z,924.33
2019-02-28T17:48:00.047Z,924.40
2019-02-28T17:49:31.173Z,924.45
2019-02-28T17:51:03.077Z,924.39
2019-02-28T17:52:35.066Z,924.36
2019-02-28T17:54:07.491Z,924.42
2019-02-28T17:55:38.572Z,924.42
2019-02-28T17:57:10.316Z,924.40
2019-02-28T17:58:42.416Z,924.41
2019-02-28T18:00:16.161Z,924.50
2019-02-28T18:01:45.863Z,924.57
2019-02-28T18:03:17.475Z,924.47
2019-02-28T18:04:49.355Z,924.48
2019-02-28T18:06:21.665Z,924.50
2019-02-28T18:07:57.777Z,924.47
2019-02-28T18:09:24.875Z,924.56
2019-02-28T18:10:59.189Z,924.48
2019-02-28T18:12:28.454Z,924.41
2019-02-28T18:14:00.409Z,924.32
2019-02-28T18:15:32.375Z,924.37
2019-02-28T18:17:03.825Z,924.31
2019-02-28T18:18:35.794Z,924.33
2019-02-28T18:20:08.638Z,924.28
2019-02-28T18:21:41.090Z,924.24
2019-02-28T18:23:10.937Z,924.26
2019-02-28T18:24:43.263Z,924.32
2019-02-28T18:26:15.612Z,924.43
2019-02-28T18:27:47.741Z,924.39
2019-02-28T18:29:18.346Z,924.47
2019-02-28T18:30:50.475Z,924.51
2019-02-28T18:32:21.989Z,924.49
2019-02-28T18:33:54.129Z,924.44
2019-02-28T18:35:25.580Z,924.34
2019-02-28T18:36:57.818Z,924.41
2019-02-28T18:38:29.427Z,924.34
2019-02-28T18:40:02.295Z,924.37
2019-02-28T18:41:33.130Z,924.21
2019-02-28T18:43:04.968Z,924.24
2019-02-28T18:44:41.225Z,924.26
2019-02-28T18:46:08.392Z,924.23
2019-02-28T18:47:40.917Z,924.25
2019-02-28T18:49:11.880Z,924.21
2019-02-28T18:50:44.179Z,924.24
2019-02-28T18:52:15.780Z,924.25
2019-02-28T18:53:47.451Z,924.33
2019-02-28T18:55:19.261Z,924.41
2019-02-28T18:56:50.919Z,924.44
2019-02-28T18:58:23.041Z,924.41
2019-02-28T18:59:54.643Z,924.44
2019-02-28T19:01:26.377Z,924.36
2019-02-28T19:02:58.351Z,924.38
2019-02-28T19:06:01.996Z,924.17
2019-02-28T19:07:33.589Z,924.23
2019-02-28T19:09:05.436Z,924.19
2019-02-28T19:12:09.411Z,924.10
2019-02-28T19:13:41.049Z,924.04
2019-02-28T19:15:12.710Z,924.10
2019-02-28T19:16:44.721Z,923.99
2019-02-28T19:18:16.270Z,923.98
2019-02-28T19:19:48.281Z,924.06
2019-02-28T19:21:20.205Z,924.02
2019-02-28T19:22:51.948Z,924.06
2019-02-28T19:25:55.444Z,924.05
2019-02-28T19:27:27.245Z,924.10
2019-02-28T19:28:59.055Z,924.00
2019-02-28T19:30:30.846Z,924.04
2019-02-28T19:32:02.761Z,924.01
2019-02-28T19:33:34.473Z,924.05
2019-02-28T19:35:06.432Z,924.10
2019-02-28T19:36:38.091Z,924.08
2019-02-28T19:38:09.871Z,924.07
2019-02-28T19:39:41.764Z,924.01
2019-02-28T19:41:13.753Z,924.04
2019-02-28T19:44:17.145Z,924.03
2019-02-28T19:45:48.992Z,924.00
2019-02-28T19:48:52.592Z,924.01
2019-02-28T19:50:24.528Z,923.97
2019-02-28T19:51:56.513Z,923.97
2019-02-28T19:53:28.897Z,923.94
2019-02-28T19:55:00.405Z,924.00